Tremont, Illinois
Current Conditions -  °F | °C
As of 10:11 AM on Monday 26 Jan 2015 (Local Time) from KPIA Reporting Station
Light Snow Light Snow  
Wind Chill: 16°   Ceiling: 7000
Heat Index: 24°   Visibility: 4mi
Dew Point: 20°   Wind: 7mph
Humidity: 84%   Direction: 180°S
Pressure: 29.96"   Gusts: NA
Location:  40.53°N, 89.49°W
Report Text: KPIA 261611Z 18006KT 4SM -SN BR SCT021 OVC070 M04/M07 A2996 RMK AO2 P0000 T10441067
Loading
Personal Weather Stations






























Interactive Weather Map New forecast layout! Learn more

10-Day Weather Forecast

Advertisements
Track Severe Weather on mobile